sensor_id;sensor_type;location;lat;lon;timestamp;pressure;altitude;pressure_sealevel;temperature;humidity
14067;BME280;7108;42.684;23.350;2022-11-15T00:01:17;95881.47;;;5.49;100.00
14067;BME280;7108;42.684;23.350;2022-11-15T00:03:44;95960.47;;;6.10;100.00
14067;BME280;7108;42.684;23.350;2022-11-15T00:06:10;95886.00;;;5.48;100.00
14067;BME280;7108;42.684;23.350;2022-11-15T00:08:36;95972.88;;;5.98;100.00
14067;BME280;7108;42.684;23.350;2022-11-15T00:11:04;95918.63;;;5.67;100.00
14067;BME280;7108;42.684;23.350;2022-11-15T00:13:30;95853.63;;;5.41;100.00
14067;BME280;7108;42.684;23.350;2022-11-15T00:16:05;95875.81;;;5.50;100.00
14067;BME280;7108;42.684;23.350;2022-11-15T00:18:40;95972.59;;;6.08;100.00
14067;BME280;7108;42.684;23.350;2022-11-15T00:21:15;95908.47;;;5.78;100.00
14067;BME280;7108;42.684;23.350;2022-11-15T00:23:41;95951.50;;;6.06;100.00
14067;BME280;7108;42.684;23.350;2022-11-15T00:26:07;95934.28;;;5.52;100.00
14067;BME280;7108;42.684;23.350;2022-11-15T00:28:35;95927.19;;;5.78;100.00
14067;BME280;7108;42.684;23.350;2022-11-15T00:31:05;95944.88;;;6.04;100.00
14067;BME280;7108;42.684;23.350;2022-11-15T00:33:35;95949.88;;;5.88;100.00
14067;BME280;7108;42.684;23.350;2022-11-15T00:36:06;95937.13;;;5.94;100.00
14067;BME280;7108;42.684;23.350;2022-11-15T00:38:33;95808.38;;;5.06;100.00
14067;BME280;7108;42.684;23.350;2022-11-15T00:40:59;95952.38;;;5.93;100.00
14067;BME280;7108;42.684;23.350;2022-11-15T00:43:26;95934.81;;;5.62;100.00
14067;BME280;7108;42.684;23.350;2022-11-15T00:45:52;95825.69;;;5.09;100.00
14067;BME280;7108;42.684;23.350;2022-11-15T00:48:18;95816.13;;;5.16;100.00
14067;BME280;7108;42.684;23.350;2022-11-15T00:50:43;95712.38;;;4.54;100.00
14067;BME280;7108;42.684;23.350;2022-11-15T00:53:17;95877.50;;;5.38;100.00
14067;BME280;7108;42.684;23.350;2022-11-15T00:55:43;95824.44;;;5.15;100.00
14067;BME280;7108;42.684;23.350;2022-11-15T00:58:11;95924.81;;;5.76;100.00
14067;BME280;7108;42.684;23.350;2022-11-15T01:00:37;95843.81;;;5.28;100.00
14067;BME280;7108;42.684;23.350;2022-11-15T01:03:03;95876.53;;;5.34;100.00
14067;BME280;7108;42.684;23.350;2022-11-15T01:05:31;95856.63;;;5.10;100.00
14067;BME280;7108;42.684;23.350;2022-11-15T01:07:59;95857.97;;;5.37;100.00
14067;BME280;7108;42.684;23.350;2022-11-15T01:10:28;95913.59;;;5.74;100.00
14067;BME280;7108;42.684;23.350;2022-11-15T01:12:53;95884.91;;;5.49;100.00
14067;BME280;7108;42.684;23.350;2022-11-15T01:15:20;95900.84;;;5.63;100.00
14067;BME280;7108;42.684;23.350;2022-11-15T01:17:54;95825.03;;;5.12;100.00
14067;BME280;7108;42.684;23.350;2022-11-15T01:20:22;95879.06;;;5.39;100.00
14067;BME280;7108;42.684;23.350;2022-11-15T01:22:48;95894.72;;;5.23;100.00
14067;BME280;7108;42.684;23.350;2022-11-15T01:25:17;95823.06;;;4.87;100.00
14067;BME280;7108;42.684;23.350;2022-11-15T01:27:42;95882.72;;;5.13;100.00
14067;BME280;7108;42.684;23.350;2022-11-15T01:30:16;95851.97;;;5.23;100.00
14067;BME280;7108;42.684;23.350;2022-11-15T01:32:45;95804.28;;;5.00;100.00
14067;BME280;7108;42.684;23.350;2022-11-15T01:35:19;95934.03;;;5.70;100.00
14067;BME280;7108;42.684;23.350;2022-11-15T01:37:49;95814.31;;;4.95;100.00
14067;BME280;7108;42.684;23.350;2022-11-15T01:40:17;95851.69;;;4.95;100.00
14067;BME280;7108;42.684;23.350;2022-11-15T01:42:45;95889.91;;;5.34;100.00
14067;BME280;7108;42.684;23.350;2022-11-15T01:45:15;95877.31;;;5.34;100.00
14067;BME280;7108;42.684;23.350;2022-11-15T01:47:50;95856.03;;;5.21;100.00
14067;BME280;7108;42.684;23.350;2022-11-15T01:50:23;95918.28;;;5.60;100.00
14067;BME280;7108;42.684;23.350;2022-11-15T01:52:53;95803.28;;;4.88;100.00
14067;BME280;7108;42.684;23.350;2022-11-15T01:55:26;95852.59;;;4.90;100.00
14067;BME280;7108;42.684;23.350;2022-11-15T01:57:56;95859.72;;;5.03;100.00
14067;BME280;7108;42.684;23.350;2022-11-15T02:00:26;95815.81;;;4.79;100.00
14067;BME280;7108;42.684;23.350;2022-11-15T02:02:52;95826.22;;;4.89;100.00
14067;BME280;7108;42.684;23.350;2022-11-15T02:05:20;95890.00;;;5.29;100.00
14067;BME280;7108;42.684;23.350;2022-11-15T02:07:49;95929.56;;;5.49;100.00
14067;BME280;7108;42.684;23.350;2022-11-15T02:10:21;95939.13;;;5.50;100.00
14067;BME280;7108;42.684;23.350;2022-11-15T02:12:48;95834.28;;;5.06;100.00
14067;BME280;7108;42.684;23.350;2022-11-15T02:15:14;95910.53;;;5.50;100.00
14067;BME280;7108;42.684;23.350;2022-11-15T02:20:52;95911.94;;;5.48;100.00
14067;BME280;7108;42.684;23.350;2022-11-15T02:31:51;95760.16;;;4.12;100.00
14067;BME280;7108;42.684;23.350;2022-11-15T02:34:51;95855.22;;;4.82;100.00
14067;BME280;7108;42.684;23.350;2022-11-15T02:40:41;95908.59;;;5.34;100.00
14067;BME280;7108;42.684;23.350;2022-11-15T02:43:26;95809.88;;;4.60;100.00
14067;BME280;7108;42.684;23.350;2022-11-15T02:46:33;95902.59;;;5.28;100.00
14067;BME280;7108;42.684;23.350;2022-11-15T02:49:20;95893.22;;;5.09;100.00
14067;BME280;7108;42.684;23.350;2022-11-15T02:51:50;95730.00;;;4.03;100.00
14067;BME280;7108;42.684;23.350;2022-11-15T02:54:21;95932.28;;;5.27;100.00
14067;BME280;7108;42.684;23.350;2022-11-15T02:56:49;95802.44;;;4.49;100.00
14067;BME280;7108;42.684;23.350;2022-11-15T03:02:15;95908.09;;;5.32;100.00
14067;BME280;7108;42.684;23.350;2022-11-15T03:04:56;95929.06;;;5.08;100.00
14067;BME280;7108;42.684;23.350;2022-11-15T03:07:34;95836.97;;;4.75;100.00
14067;BME280;7108;42.684;23.350;2022-11-15T03:12:57;95781.63;;;4.29;100.00
14067;BME280;7108;42.684;23.350;2022-11-15T03:15:29;95909.47;;;5.21;100.00
14067;BME280;7108;42.684;23.350;2022-11-15T03:18:21;95873.56;;;5.05;100.00
14067;BME280;7108;42.684;23.350;2022-11-15T03:20:56;95831.97;;;4.74;100.00
14067;BME280;7108;42.684;23.350;2022-11-15T03:23:24;95861.09;;;4.92;100.00
14067;BME280;7108;42.684;23.350;2022-11-15T03:25:54;95782.38;;;4.51;100.00
14067;BME280;7108;42.684;23.350;2022-11-15T03:28:32;95848.66;;;4.88;100.00
14067;BME280;7108;42.684;23.350;2022-11-15T03:31:01;95690.31;;;4.01;100.00
14067;BME280;7108;42.684;23.350;2022-11-15T03:33:48;95872.16;;;5.08;100.00
14067;BME280;7108;42.684;23.350;2022-11-15T03:36:14;95824.00;;;4.91;100.00
14067;BME280;7108;42.684;23.350;2022-11-15T03:38:41;95881.34;;;5.23;100.00
14067;BME280;7108;42.684;23.350;2022-11-15T03:41:24;95802.38;;;4.92;100.00
14067;BME280;7108;42.684;23.350;2022-11-15T03:43:57;95889.94;;;5.51;100.00
14067;BME280;7108;42.684;23.350;2022-11-15T03:46:42;95815.41;;;4.94;100.00
14067;BME280;7108;42.684;23.350;2022-11-15T03:49:24;95839.25;;;5.29;100.00
14067;BME280;7108;42.684;23.350;2022-11-15T03:51:51;95876.28;;;5.61;100.00
14067;BME280;7108;42.684;23.350;2022-11-15T03:54:23;95772.88;;;4.97;100.00
14067;BME280;7108;42.684;23.350;2022-11-15T03:56:48;95715.03;;;4.46;100.00
14067;BME280;7108;42.684;23.350;2022-11-15T03:59:17;95738.41;;;4.79;100.00
14067;BME280;7108;42.684;23.350;2022-11-15T04:01:42;95722.66;;;4.69;100.00
14067;BME280;7108;42.684;23.350;2022-11-15T04:04:08;95861.78;;;5.45;100.00
14067;BME280;7108;42.684;23.350;2022-11-15T04:06:36;95892.66;;;5.59;100.00
14067;BME280;7108;42.684;23.350;2022-11-15T04:09:02;95836.56;;;5.29;100.00
14067;BME280;7108;42.684;23.350;2022-11-15T04:11:28;95864.00;;;5.43;100.00
14067;BME280;7108;42.684;23.350;2022-11-15T04:14:01;95794.69;;;4.99;100.00
14067;BME280;7108;42.684;23.350;2022-11-15T04:16:34;95785.09;;;4.90;100.00
14067;BME280;7108;42.684;23.350;2022-11-15T04:19:00;95729.28;;;4.41;100.00
14067;BME280;7108;42.684;23.350;2022-11-15T04:21:44;95890.91;;;5.55;100.00
14067;BME280;7108;42.684;23.350;2022-11-15T04:24:28;95747.94;;;4.71;100.00
14067;BME280;7108;42.684;23.350;2022-11-15T04:26:53;95776.00;;;4.99;100.00
14067;BME280;7108;42.684;23.350;2022-11-15T04:29:24;95820.25;;;5.30;100.00
14067;BME280;7108;42.684;23.350;2022-11-15T04:32:22;95824.44;;;5.15;100.00
14067;BME280;7108;42.684;23.350;2022-11-15T04:34:48;95810.38;;;5.01;100.00
14067;BME280;7108;42.684;23.350;2022-11-15T04:37:20;95816.22;;;5.03;100.00
14067;BME280;7108;42.684;23.350;2022-11-15T04:39:54;95753.19;;;4.54;100.00
14067;BME280;7108;42.684;23.350;2022-11-15T04:42:23;95880.44;;;5.28;100.00
14067;BME280;7108;42.684;23.350;2022-11-15T04:44:51;95790.06;;;4.83;100.00
14067;BME280;7108;42.684;23.350;2022-11-15T04:47:19;95776.25;;;4.51;100.00
14067;BME280;7108;42.684;23.350;2022-11-15T04:49:51;95801.03;;;4.73;100.00
14067;BME280;7108;42.684;23.350;2022-11-15T04:52:20;95655.25;;;3.86;100.00
14067;BME280;7108;42.684;23.350;2022-11-15T04:54:49;95901.81;;;5.28;100.00
14067;BME280;7108;42.684;23.350;2022-11-15T04:57:18;95647.13;;;3.91;100.00
14067;BME280;7108;42.684;23.350;2022-11-15T04:59:49;95731.19;;;4.41;100.00
14067;BME280;7108;42.684;23.350;2022-11-15T05:02:17;95693.63;;;4.07;100.00
14067;BME280;7108;42.684;23.350;2022-11-15T05:04:43;95877.13;;;5.31;100.00
14067;BME280;7108;42.684;23.350;2022-11-15T05:07:17;95703.59;;;4.23;100.00
14067;BME280;7108;42.684;23.350;2022-11-15T05:09:43;95665.53;;;3.79;100.00
14067;BME280;7108;42.684;23.350;2022-11-15T05:12:14;95775.19;;;4.60;100.00
14067;BME280;7108;42.684;23.350;2022-11-15T05:14:40;95764.19;;;4.61;100.00
14067;BME280;7108;42.684;23.350;2022-11-15T05:17:05;95726.34;;;4.51;100.00
14067;BME280;7108;42.684;23.350;2022-11-15T05:19:41;95866.88;;;5.55;100.00
14067;BME280;7108;42.684;23.350;2022-11-15T05:22:10;95912.16;;;5.60;100.00
14067;BME280;7108;42.684;23.350;2022-11-15T05:24:36;95726.47;;;4.46;100.00
14067;BME280;7108;42.684;23.350;2022-11-15T05:27:04;95787.16;;;5.01;100.00
14067;BME280;7108;42.684;23.350;2022-11-15T05:29:30;95813.00;;;5.22;100.00
14067;BME280;7108;42.684;23.350;2022-11-15T05:31:56;95891.13;;;5.75;100.00
14067;BME280;7108;42.684;23.350;2022-11-15T05:34:22;95808.41;;;5.15;100.00
14067;BME280;7108;42.684;23.350;2022-11-15T05:36:59;95744.53;;;4.49;100.00
14067;BME280;7108;42.684;23.350;2022-11-15T05:39:28;95648.19;;;4.12;100.00
14067;BME280;7108;42.684;23.350;2022-11-15T05:42:10;95863.03;;;5.47;100.00
14067;BME280;7108;42.684;23.350;2022-11-15T05:44:37;95763.59;;;4.64;100.00
14067;BME280;7108;42.684;23.350;2022-11-15T05:47:05;95787.63;;;5.03;100.00
14067;BME280;7108;42.684;23.350;2022-11-15T05:49:37;95809.44;;;4.97;100.00
14067;BME280;7108;42.684;23.350;2022-11-15T05:52:06;95885.75;;;5.67;100.00
14067;BME280;7108;42.684;23.350;2022-11-15T05:54:35;95785.38;;;4.88;100.00
14067;BME280;7108;42.684;23.350;2022-11-15T05:57:02;95785.41;;;4.97;100.00
14067;BME280;7108;42.684;23.350;2022-11-15T05:59:29;95816.88;;;5.08;100.00
14067;BME280;7108;42.684;23.350;2022-11-15T06:01:56;95790.38;;;4.81;100.00
14067;BME280;7108;42.684;23.350;2022-11-15T06:04:22;95833.09;;;5.20;100.00
14067;BME280;7108;42.684;23.350;2022-11-15T06:06:48;95892.28;;;5.52;100.00
14067;BME280;7108;42.684;23.350;2022-11-15T06:09:13;95779.66;;;4.73;100.00
14067;BME280;7108;42.684;23.350;2022-11-15T06:11:39;95783.28;;;4.77;100.00
14067;BME280;7108;42.684;23.350;2022-11-15T06:14:08;95843.59;;;5.17;100.00
14067;BME280;7108;42.684;23.350;2022-11-15T06:16:33;95859.53;;;5.30;100.00
14067;BME280;7108;42.684;23.350;2022-11-15T06:19:02;95897.84;;;5.64;100.00
14067;BME280;7108;42.684;23.350;2022-11-15T06:21:33;95797.66;;;4.98;100.00
14067;BME280;7108;42.684;23.350;2022-11-15T06:23:58;95766.09;;;4.61;100.00
14067;BME280;7108;42.684;23.350;2022-11-15T06:26:36;95767.00;;;4.87;100.00
14067;BME280;7108;42.684;23.350;2022-11-15T06:29:03;95836.78;;;5.41;100.00
14067;BME280;7108;42.684;23.350;2022-11-15T06:31:33;95758.06;;;4.91;100.00
14067;BME280;7108;42.684;23.350;2022-11-15T06:33:59;95693.28;;;4.60;100.00
14067;BME280;7108;42.684;23.350;2022-11-15T06:36:25;95818.41;;;5.39;100.00
14067;BME280;7108;42.684;23.350;2022-11-15T06:38:50;95868.16;;;5.74;100.00
14067;BME280;7108;42.684;23.350;2022-11-15T06:41:19;95758.78;;;5.22;100.00
14067;BME280;7108;42.684;23.350;2022-11-15T06:43:48;95821.28;;;5.60;100.00
14067;BME280;7108;42.684;23.350;2022-11-15T06:46:14;95787.66;;;5.12;100.00
14067;BME280;7108;42.684;23.350;2022-11-15T06:48:39;95851.41;;;5.43;100.00
14067;BME280;7108;42.684;23.350;2022-11-15T06:51:08;95800.22;;;5.11;100.00
14067;BME280;7108;42.684;23.350;2022-11-15T06:53:37;95849.56;;;5.61;100.00
14067;BME280;7108;42.684;23.350;2022-11-15T06:56:05;95846.19;;;5.38;100.00
14067;BME280;7108;42.684;23.350;2022-11-15T06:58:31;95885.34;;;5.82;100.00
14067;BME280;7108;42.684;23.350;2022-11-15T07:01:04;95860.75;;;5.63;100.00
14067;BME280;7108;42.684;23.350;2022-11-15T07:03:38;95805.22;;;5.43;100.00
14067;BME280;7108;42.684;23.350;2022-11-15T07:06:08;95865.59;;;5.61;100.00
14067;BME280;7108;42.684;23.350;2022-11-15T07:08:37;95745.00;;;4.81;100.00
14067;BME280;7108;42.684;23.350;2022-11-15T07:11:07;95751.91;;;4.82;100.00
14067;BME280;7108;42.684;23.350;2022-11-15T07:13:34;95783.53;;;5.06;100.00
14067;BME280;7108;42.684;23.350;2022-11-15T07:16:08;95664.13;;;4.34;100.00
14067;BME280;7108;42.684;23.350;2022-11-15T07:18:38;95683.16;;;4.41;100.00
14067;BME280;7108;42.684;23.350;2022-11-15T07:21:09;95695.72;;;4.49;100.00
14067;BME280;7108;42.684;23.350;2022-11-15T07:23:39;95678.00;;;4.53;100.00
14067;BME280;7108;42.684;23.350;2022-11-15T07:26:05;95679.56;;;4.45;100.00
14067;BME280;7108;42.684;23.350;2022-11-15T07:28:31;95783.53;;;5.06;100.00
14067;BME280;7108;42.684;23.350;2022-11-15T07:30:56;95782.81;;;5.14;100.00
14067;BME280;7108;42.684;23.350;2022-11-15T07:33:22;95893.22;;;5.86;100.00
14067;BME280;7108;42.684;23.350;2022-11-15T07:35:50;95812.84;;;5.27;100.00
14067;BME280;7108;42.684;23.350;2022-11-15T07:38:17;95885.50;;;5.85;100.00
14067;BME280;7108;42.684;23.350;2022-11-15T07:40:46;95864.91;;;5.94;100.00
14067;BME280;7108;42.684;23.350;2022-11-15T07:43:12;95867.59;;;6.02;100.00
14067;BME280;7108;42.684;23.350;2022-11-15T07:45:42;95866.19;;;5.96;100.00
14067;BME280;7108;42.684;23.350;2022-11-15T07:48:08;95828.16;;;5.44;100.00
14067;BME280;7108;42.684;23.350;2022-11-15T07:50:34;95809.78;;;5.51;100.00
14067;BME280;7108;42.684;23.350;2022-11-15T07:53:00;95830.31;;;5.81;100.00
14067;BME280;7108;42.684;23.350;2022-11-15T07:55:27;95758.19;;;5.33;100.00
14067;BME280;7108;42.684;23.350;2022-11-15T07:58:08;95864.63;;;6.12;100.00
14067;BME280;7108;42.684;23.350;2022-11-15T08:00:37;95769.38;;;5.52;100.00
14067;BME280;7108;42.684;23.350;2022-11-15T08:03:04;95858.81;;;6.10;100.00
14067;BME280;7108;42.684;23.350;2022-11-15T08:05:30;95873.91;;;6.15;100.00
14067;BME280;7108;42.684;23.350;2022-11-15T08:07:58;95777.13;;;5.62;100.00
14067;BME280;7108;42.684;23.350;2022-11-15T08:10:28;95745.47;;;5.56;100.00
14067;BME280;7108;42.684;23.350;2022-11-15T08:13:05;95821.06;;;6.12;100.00
14067;BME280;7108;42.684;23.350;2022-11-15T08:15:34;95859.78;;;6.40;100.00
14067;BME280;7108;42.684;23.350;2022-11-15T08:18:04;95854.91;;;6.25;100.00
14067;BME280;7108;42.684;23.350;2022-11-15T08:20:39;95840.09;;;6.02;100.00
14067;BME280;7108;42.684;23.350;2022-11-15T08:23:11;95852.81;;;5.96;100.00
14067;BME280;7108;42.684;23.350;2022-11-15T08:25:42;95770.63;;;5.46;100.00
14067;BME280;7108;42.684;23.350;2022-11-15T08:28:16;95777.38;;;5.52;100.00
14067;BME280;7108;42.684;23.350;2022-11-15T08:30:42;95806.09;;;5.94;100.00
14067;BME280;7108;42.684;23.350;2022-11-15T08:33:12;95710.41;;;5.32;100.00
14067;BME280;7108;42.684;23.350;2022-11-15T08:35:41;95800.22;;;5.75;100.00
14067;BME280;7108;42.684;23.350;2022-11-15T08:38:10;95712.47;;;5.43;100.00
14067;BME280;7108;42.684;23.350;2022-11-15T08:40:36;95796.66;;;5.88;100.00
14067;BME280;7108;42.684;23.350;2022-11-15T08:43:04;95725.84;;;5.60;100.00
14067;BME280;7108;42.684;23.350;2022-11-15T08:45:31;95659.50;;;5.45;100.00
14067;BME280;7108;42.684;23.350;2022-11-15T08:47:56;95758.75;;;5.78;100.00
14067;BME280;7108;42.684;23.350;2022-11-15T08:50:24;95785.78;;;6.18;100.00
14067;BME280;7108;42.684;23.350;2022-11-15T08:52:50;95795.84;;;6.38;100.00
14067;BME280;7108;42.684;23.350;2022-11-15T08:55:16;95749.47;;;5.92;100.00
14067;BME280;7108;42.684;23.350;2022-11-15T08:57:41;95828.72;;;6.64;100.00
14067;BME280;7108;42.684;23.350;2022-11-15T09:00:07;95738.94;;;6.04;100.00
14067;BME280;7108;42.684;23.350;2022-11-15T09:02:33;95735.28;;;6.00;100.00
14067;BME280;7108;42.684;23.350;2022-11-15T09:05:01;95729.81;;;5.88;100.00
14067;BME280;7108;42.684;23.350;2022-11-15T09:07:27;95710.94;;;5.85;100.00
14067;BME280;7108;42.684;23.350;2022-11-15T09:09:57;95750.72;;;6.03;100.00
14067;BME280;7108;42.684;23.350;2022-11-15T09:12:24;95760.16;;;6.00;100.00
14067;BME280;7108;42.684;23.350;2022-11-15T09:14:49;95754.34;;;6.15;100.00
14067;BME280;7108;42.684;23.350;2022-11-15T09:17:17;95759.78;;;6.36;100.00
14067;BME280;7108;42.684;23.350;2022-11-15T09:19:43;95755.56;;;6.35;100.00
14067;BME280;7108;42.684;23.350;2022-11-15T09:22:08;95694.91;;;5.85;100.00
14067;BME280;7108;42.684;23.350;2022-11-15T09:24:35;95753.50;;;6.32;100.00
14067;BME280;7108;42.684;23.350;2022-11-15T09:27:01;95787.94;;;6.67;100.00
14067;BME280;7108;42.684;23.350;2022-11-15T09:29:27;95688.75;;;5.92;100.00
14067;BME280;7108;42.684;23.350;2022-11-15T09:31:54;95714.06;;;6.12;100.00
14067;BME280;7108;42.684;23.350;2022-11-15T09:34:20;95681.53;;;5.85;100.00
14067;BME280;7108;42.684;23.350;2022-11-15T09:36:48;95658.38;;;5.72;100.00
14067;BME280;7108;42.684;23.350;2022-11-15T09:39:14;95761.09;;;6.21;100.00
14067;BME280;7108;42.684;23.350;2022-11-15T09:49:53;95738.88;;;6.38;100.00
14067;BME280;7108;42.684;23.350;2022-11-15T09:52:24;95768.84;;;6.68;100.00
14067;BME280;7108;42.684;23.350;2022-11-15T09:54:51;95703.13;;;6.42;100.00
14067;BME280;7108;42.684;23.350;2022-11-15T10:00:17;95743.56;;;6.95;100.00
14067;BME280;7108;42.684;23.350;2022-11-15T10:05:56;95659.78;;;6.57;100.00
14067;BME280;7108;42.684;23.350;2022-11-15T10:08:43;95732.63;;;7.08;100.00
14067;BME280;7108;42.684;23.350;2022-11-15T10:11:11;95701.22;;;6.80;100.00
14067;BME280;7108;42.684;23.350;2022-11-15T10:13:43;95698.63;;;7.00;100.00
14067;BME280;7108;42.684;23.350;2022-11-15T10:22:26;95684.91;;;7.30;100.00
14067;BME280;7108;42.684;23.350;2022-11-15T10:27:29;95730.38;;;7.39;100.00
14067;BME280;7108;42.684;23.350;2022-11-15T10:29:55;95728.91;;;7.50;100.00
14067;BME280;7108;42.684;23.350;2022-11-15T10:32:21;95694.84;;;7.50;100.00
14067;BME280;7108;42.684;23.350;2022-11-15T10:34:48;95517.84;;;6.37;100.00
14067;BME280;7108;42.684;23.350;2022-11-15T10:37:31;95603.66;;;7.18;100.00
14067;BME280;7108;42.684;23.350;2022-11-15T10:40:25;95491.84;;;6.66;100.00
14067;BME280;7108;42.684;23.350;2022-11-15T10:43:14;95649.72;;;7.73;100.00
14067;BME280;7108;42.684;23.350;2022-11-15T10:45:40;95694.91;;;7.82;100.00
14067;BME280;7108;42.684;23.350;2022-11-15T10:48:25;95646.84;;;7.57;100.00
14067;BME280;7108;42.684;23.350;2022-11-15T10:50:52;95584.34;;;7.45;100.00
14067;BME280;7108;42.684;23.350;2022-11-15T10:53:23;95590.09;;;7.35;100.00
14067;BME280;7108;42.684;23.350;2022-11-15T10:56:00;95562.03;;;7.20;100.00
14067;BME280;7108;42.684;23.350;2022-11-15T11:01:26;95640.72;;;7.89;100.00
14067;BME280;7108;42.684;23.350;2022-11-15T11:06:27;95665.59;;;7.78;100.00
14067;BME280;7108;42.684;23.350;2022-11-15T11:08:59;95540.59;;;7.20;100.00
14067;BME280;7108;42.684;23.350;2022-11-15T11:11:46;95539.59;;;7.25;100.00
14067;BME280;7108;42.684;23.350;2022-11-15T11:14:15;95623.25;;;7.83;100.00
14067;BME280;7108;42.684;23.350;2022-11-15T11:16:50;95584.41;;;7.57;100.00
14067;BME280;7108;42.684;23.350;2022-11-15T11:25:02;95612.78;;;7.90;100.00
14067;BME280;7108;42.684;23.350;2022-11-15T11:30:58;95577.97;;;7.70;100.00
14067;BME280;7108;42.684;23.350;2022-11-15T11:33:31;95518.19;;;7.37;100.00
14067;BME280;7108;42.684;23.350;2022-11-15T11:39:24;95487.47;;;7.34;100.00
14067;BME280;7108;42.684;23.350;2022-11-15T11:41:46;95529.72;;;7.70;100.00
14067;BME280;7108;42.684;23.350;2022-11-15T11:44:36;95557.63;;;8.13;100.00
14067;BME280;7108;42.684;23.350;2022-11-15T11:47:21;95451.94;;;7.25;100.00
14067;BME280;7108;42.684;23.350;2022-11-15T11:49:54;95359.13;;;6.97;100.00
14067;BME280;7108;42.684;23.350;2022-11-15T11:52:37;95516.63;;;7.80;100.00
14067;BME280;7108;42.684;23.350;2022-11-15T11:55:18;95550.63;;;8.32;100.00
14067;BME280;7108;42.684;23.350;2022-11-15T11:58:09;95541.31;;;8.42;100.00
14067;BME280;7108;42.684;23.350;2022-11-15T12:00:44;95492.97;;;8.06;100.00
14067;BME280;7108;42.684;23.350;2022-11-15T12:03:46;95536.72;;;8.54;100.00
14067;BME280;7108;42.684;23.350;2022-11-15T12:06:35;95498.72;;;8.40;100.00
14067;BME280;7108;42.684;23.350;2022-11-15T12:09:23;95520.06;;;8.60;100.00
14067;BME280;7108;42.684;23.350;2022-11-15T12:12:18;95480.03;;;8.32;100.00
14067;BME280;7108;42.684;23.350;2022-11-15T12:15:00;95486.28;;;8.36;100.00
14067;BME280;7108;42.684;23.350;2022-11-15T12:17:29;95513.38;;;8.54;100.00
14067;BME280;7108;42.684;23.350;2022-11-15T12:20:00;95513.47;;;8.58;100.00
14067;BME280;7108;42.684;23.350;2022-11-15T12:22:55;95429.25;;;8.15;100.00
14067;BME280;7108;42.684;23.350;2022-11-15T12:28:20;95492.63;;;8.67;100.00
14067;BME280;7108;42.684;23.350;2022-11-15T12:31:03;95494.75;;;8.73;100.00
14067;BME280;7108;42.684;23.350;2022-11-15T12:33:39;95446.22;;;8.54;100.00
14067;BME280;7108;42.684;23.350;2022-11-15T12:36:10;95486.31;;;8.87;100.00
14067;BME280;7108;42.684;23.350;2022-11-15T12:38:57;95480.13;;;8.98;100.00
14067;BME280;7108;42.684;23.350;2022-11-15T12:41:26;95468.16;;;8.96;100.00
14067;BME280;7108;42.684;23.350;2022-11-15T12:43:55;95445.09;;;8.95;100.00
14067;BME280;7108;42.684;23.350;2022-11-15T12:47:21;95439.03;;;8.98;100.00
14067;BME280;7108;42.684;23.350;2022-11-15T12:52:13;95464.78;;;9.26;100.00
14067;BME280;7108;42.684;23.350;2022-11-15T12:59:56;95467.09;;;9.39;100.00
14067;BME280;7108;42.684;23.350;2022-11-15T13:02:25;95411.69;;;9.08;100.00
14067;BME280;7108;42.684;23.350;2022-11-15T13:04:53;95417.50;;;9.10;100.00
14067;BME280;7108;42.684;23.350;2022-11-15T13:17:54;95438.78;;;9.30;100.00
14067;BME280;7108;42.684;23.350;2022-11-15T13:20:25;95437.66;;;9.31;100.00
14067;BME280;7108;42.684;23.350;2022-11-15T13:27:49;95403.38;;;9.13;100.00
14067;BME280;7108;42.684;23.350;2022-11-15T13:30:27;95393.94;;;9.18;100.00
14067;BME280;7108;42.684;23.350;2022-11-15T13:32:55;95416.00;;;9.39;100.00
14067;BME280;7108;42.684;23.350;2022-11-15T13:35:23;95404.63;;;9.30;100.00
14067;BME280;7108;42.684;23.350;2022-11-15T13:37:51;95392.00;;;9.19;100.00
14067;BME280;7108;42.684;23.350;2022-11-15T13:40:29;95338.91;;;8.85;100.00
14067;BME280;7108;42.684;23.350;2022-11-15T13:42:59;95419.81;;;9.38;100.00
14067;BME280;7108;42.684;23.350;2022-11-15T13:45:39;95385.00;;;9.14;100.00
14067;BME280;7108;42.684;23.350;2022-11-15T13:48:04;95427.81;;;9.50;100.00
14067;BME280;7108;42.684;23.350;2022-11-15T13:50:33;95412.25;;;9.44;100.00
14067;BME280;7108;42.684;23.350;2022-11-15T13:53:03;95370.69;;;9.26;100.00
14067;BME280;7108;42.684;23.350;2022-11-15T13:55:30;95400.47;;;9.48;100.00
14067;BME280;7108;42.684;23.350;2022-11-15T13:58:03;95391.44;;;9.41;100.00
14067;BME280;7108;42.684;23.350;2022-11-15T14:00:43;95400.31;;;9.57;100.00
14067;BME280;7108;42.684;23.350;2022-11-15T14:03:26;95390.94;;;9.51;100.00
14067;BME280;7108;42.684;23.350;2022-11-15T14:06:12;95409.25;;;9.61;100.00
14067;BME280;7108;42.684;23.350;2022-11-15T14:08:41;95411.94;;;9.61;100.00
14067;BME280;7108;42.684;23.350;2022-11-15T14:11:14;95405.78;;;9.60;100.00
14067;BME280;7108;42.684;23.350;2022-11-15T14:13:41;95413.00;;;9.56;100.00
14067;BME280;7108;42.684;23.350;2022-11-15T14:16:21;95372.16;;;9.39;100.00
14067;BME280;7108;42.684;23.350;2022-11-15T14:18:57;95378.00;;;9.41;100.00
14067;BME280;7108;42.684;23.350;2022-11-15T14:21:22;95318.13;;;8.98;100.00
14067;BME280;7108;42.684;23.350;2022-11-15T14:23:48;95355.59;;;9.21;100.00
14067;BME280;7108;42.684;23.350;2022-11-15T14:28:52;95362.44;;;9.19;100.00
14067;BME280;7108;42.684;23.350;2022-11-15T14:31:19;95395.97;;;9.37;100.00
14067;BME280;7108;42.684;23.350;2022-11-15T14:33:45;95366.25;;;9.18;100.00
14067;BME280;7108;42.684;23.350;2022-11-15T14:36:13;95405.75;;;9.45;100.00
14067;BME280;7108;42.684;23.350;2022-11-15T14:38:39;95397.69;;;9.29;100.00
14067;BME280;7108;42.684;23.350;2022-11-15T14:41:05;95369.84;;;8.95;100.00
14067;BME280;7108;42.684;23.350;2022-11-15T14:43:33;95334.84;;;8.64;100.00
14067;BME280;7108;42.684;23.350;2022-11-15T14:45:59;95403.75;;;8.99;100.00
14067;BME280;7108;42.684;23.350;2022-11-15T14:48:24;95424.34;;;9.07;100.00
14067;BME280;7108;42.684;23.350;2022-11-15T14:50:49;95304.09;;;8.34;100.00